Terminal Aerodrome Forecast
Issued by NWS

Home | Current Version | Previous Version | Text Only | Print | Product List | Glossary On
Versions: 1 2 3 4 5 6 7 8 9 10 11 12 13
154
FTUS44 KLZK 072320
TAFHRO
TAF
KHRO 072320Z 0800/0824 30010G16KT P6SM BKN250
     FM080600 30010G18KT P6SM BKN035 OVC100
     FM081200 30015G25KT P6SM BKN025 OVC050=

USA.gov is the U.S. government's official web portal to all federal, state and local government web resources and services.